Airfield :
LOGIN :

Register | Disclaimer

   EN    FR    IT 

 










Legend :    VFR   Marginal VFR   IFR   Intensive IFR   Very Intensive IFR
Visi :
Ceiling :
>= 8 km
>= 3000ft
5 to 8 km
1000 to 3000 ft
1500m to 5 km
500 to 1000 ft
800 to 1500m
200 to 500 ft
< 800m
< 200 ft
Symbols :   Thunderstorms  Fog  Heavy snow  Heavy precipitations  Wind > 20 kt
SIGMETs :     Misc.  Thunderstorms  Icing  Turbulence  Mountain Waves  Volcanic Ashes






- Airport Elevation : 645 ft
- IATA code : DLE


LFGJ - Dole Tavaux

CURRENT METAR :
  • 041100Z AUTO 34004KT 310V030 9999 //////TCU 23/13 Q1020 TEMPO SHRA FEW060CB

EXPIRED METARs :
  • 041030Z AUTO 34005KT 9999 FEW029/// SCT092/// BKN110/// ///TCU 22/14 Q1020 TEMPO SHRA FEW060CB
  • 041000Z AUTO 36006KT 330V030 CAVOK 22/14 Q1020 TEMPO SHRA FEW060CB
  • 040930Z AUTO 36010KT CAVOK 23/15 Q1020 TEMPO SHRA FEW060CB
  • 040900Z AUTO 36008KT CAVOK 22/15 Q1020 NOSIG

TAF TAF LFGJ
Valid from the 04 at 12:00 until the 04 at 21:00 UTC


041100Z 0412/0421 35005KT CAVOK



MET'MAP, your aeronautical weather chart ! - Copyright ORBIFLY December 2007 - Disclaimer

ORBIFLY MET'MAP TEAM :

Programming & Development : Alexandra Zaïnal
Original concept : Baudouin d'Aumeries
Technical & hardware support : Manuel Goepfert
Assistance : Marc-Olivier Méhu




SOURCES & CREDITS :

   NOAA